Terminal Aerodrome Forecast
Issued by NWS Charleston, WV

Current Version | Previous Version | Graphics & Text | Print | Product List | Glossary On
Versions: 1 2 3 4 5 6 7 8 9 10 11 12 13 14 15 16 17 18 19 20 21
000
FTUS41 KRLX 281047 AAB
TAFBKW
TAF AMD
KBKW 281047Z 2811/2906 19006KT P6SM -RA OVC100
     FM281300 19006KT P6SM VCSH OVC070
     FM281900 25007KT P6SM VCSH BKN040
     FM290300 VRB03KT P6SM SCT150=

USA.gov is the U.S. government's official web portal to all federal, state and local government web resources and services.